sensor_id;sensor_type;location;lat;lon;timestamp;temperature;humidity
9776;DHT22;4927;52.472;13.108;2023-09-30T00:00:56;17.00;99.90
9776;DHT22;4927;52.472;13.108;2023-09-30T00:01:57;16.90;99.90
9776;DHT22;4927;52.472;13.108;2023-09-30T00:02:59;16.90;99.90
9776;DHT22;4927;52.472;13.108;2023-09-30T00:04:01;16.90;99.90
9776;DHT22;4927;52.472;13.108;2023-09-30T00:05:04;16.80;99.90
9776;DHT22;4927;52.472;13.108;2023-09-30T00:06:07;16.80;99.90
9776;DHT22;4927;52.472;13.108;2023-09-30T00:07:09;16.80;99.90
9776;DHT22;4927;52.472;13.108;2023-09-30T00:08:11;16.80;99.90
9776;DHT22;4927;52.472;13.108;2023-09-30T00:09:12;16.70;99.90
9776;DHT22;4927;52.472;13.108;2023-09-30T00:10:14;16.70;99.90
9776;DHT22;4927;52.472;13.108;2023-09-30T00:11:17;16.70;99.90
9776;DHT22;4927;52.472;13.108;2023-09-30T00:12:18;16.70;99.90
9776;DHT22;4927;52.472;13.108;2023-09-30T00:13:20;16.60;99.90
9776;DHT22;4927;52.472;13.108;2023-09-30T00:14:22;16.60;99.90
9776;DHT22;4927;52.472;13.108;2023-09-30T00:15:24;16.60;99.90
9776;DHT22;4927;52.472;13.108;2023-09-30T00:16:26;16.60;99.90
9776;DHT22;4927;52.472;13.108;2023-09-30T00:17:28;16.60;99.90
9776;DHT22;4927;52.472;13.108;2023-09-30T00:18:30;16.50;99.90
9776;DHT22;4927;52.472;13.108;2023-09-30T00:19:32;16.50;99.90
9776;DHT22;4927;52.472;13.108;2023-09-30T00:20:33;16.50;99.90
9776;DHT22;4927;52.472;13.108;2023-09-30T00:21:35;16.40;99.90
9776;DHT22;4927;52.472;13.108;2023-09-30T00:22:37;16.40;99.90
9776;DHT22;4927;52.472;13.108;2023-09-30T00:23:39;16.40;99.90
9776;DHT22;4927;52.472;13.108;2023-09-30T00:24:40;16.40;99.90
9776;DHT22;4927;52.472;13.108;2023-09-30T00:25:42;16.30;99.90
9776;DHT22;4927;52.472;13.108;2023-09-30T00:26:44;16.30;99.90
9776;DHT22;4927;52.472;13.108;2023-09-30T00:27:46;16.30;99.90
9776;DHT22;4927;52.472;13.108;2023-09-30T00:28:47;16.30;99.90
9776;DHT22;4927;52.472;13.108;2023-09-30T00:29:49;16.20;99.90
9776;DHT22;4927;52.472;13.108;2023-09-30T00:30:51;16.20;99.90
9776;DHT22;4927;52.472;13.108;2023-09-30T00:31:53;16.20;99.90
9776;DHT22;4927;52.472;13.108;2023-09-30T00:32:55;16.20;99.90
9776;DHT22;4927;52.472;13.108;2023-09-30T00:33:57;16.20;99.90
9776;DHT22;4927;52.472;13.108;2023-09-30T00:35:02;16.10;99.90
9776;DHT22;4927;52.472;13.108;2023-09-30T00:36:08;16.10;99.90
9776;DHT22;4927;52.472;13.108;2023-09-30T00:37:10;16.10;99.90
9776;DHT22;4927;52.472;13.108;2023-09-30T00:38:13;16.10;99.90
9776;DHT22;4927;52.472;13.108;2023-09-30T00:39:15;16.00;99.90
9776;DHT22;4927;52.472;13.108;2023-09-30T00:40:18;16.10;99.90
9776;DHT22;4927;52.472;13.108;2023-09-30T00:41:21;16.00;99.90
9776;DHT22;4927;52.472;13.108;2023-09-30T00:42:23;16.00;99.90
9776;DHT22;4927;52.472;13.108;2023-09-30T00:43:25;15.90;99.90
9776;DHT22;4927;52.472;13.108;2023-09-30T00:44:27;15.90;99.90
9776;DHT22;4927;52.472;13.108;2023-09-30T00:45:29;15.90;99.90
9776;DHT22;4927;52.472;13.108;2023-09-30T00:46:31;15.90;99.90
9776;DHT22;4927;52.472;13.108;2023-09-30T00:47:33;15.80;99.90
9776;DHT22;4927;52.472;13.108;2023-09-30T00:48:35;15.80;99.90
9776;DHT22;4927;52.472;13.108;2023-09-30T00:49:37;15.80;99.90
9776;DHT22;4927;52.472;13.108;2023-09-30T00:50:39;15.80;99.90
9776;DHT22;4927;52.472;13.108;2023-09-30T00:51:41;15.80;99.90
9776;DHT22;4927;52.472;13.108;2023-09-30T00:52:43;15.80;99.90
9776;DHT22;4927;52.472;13.108;2023-09-30T00:53:45;15.70;99.90
9776;DHT22;4927;52.472;13.108;2023-09-30T00:54:48;15.70;99.90
9776;DHT22;4927;52.472;13.108;2023-09-30T00:55:49;15.70;99.90
9776;DHT22;4927;52.472;13.108;2023-09-30T00:56:52;15.70;99.90
9776;DHT22;4927;52.472;13.108;2023-09-30T00:57:53;15.70;99.90
9776;DHT22;4927;52.472;13.108;2023-09-30T00:58:55;15.70;99.90
9776;DHT22;4927;52.472;13.108;2023-09-30T00:59:57;15.70;99.90
9776;DHT22;4927;52.472;13.108;2023-09-30T01:00:59;15.60;99.90
9776;DHT22;4927;52.472;13.108;2023-09-30T01:02:01;15.60;99.90
9776;DHT22;4927;52.472;13.108;2023-09-30T01:03:04;15.60;99.90
9776;DHT22;4927;52.472;13.108;2023-09-30T01:04:05;15.60;99.90
9776;DHT22;4927;52.472;13.108;2023-09-30T01:05:08;15.60;99.90
9776;DHT22;4927;52.472;13.108;2023-09-30T01:06:09;15.50;99.90
9776;DHT22;4927;52.472;13.108;2023-09-30T01:07:11;15.50;99.90
9776;DHT22;4927;52.472;13.108;2023-09-30T01:08:13;15.50;99.90
9776;DHT22;4927;52.472;13.108;2023-09-30T01:09:14;15.50;99.90
9776;DHT22;4927;52.472;13.108;2023-09-30T01:10:16;15.50;99.90
9776;DHT22;4927;52.472;13.108;2023-09-30T01:11:18;15.40;99.90
9776;DHT22;4927;52.472;13.108;2023-09-30T01:12:20;15.40;99.90
9776;DHT22;4927;52.472;13.108;2023-09-30T01:13:22;15.40;99.90
9776;DHT22;4927;52.472;13.108;2023-09-30T01:14:26;15.40;99.90
9776;DHT22;4927;52.472;13.108;2023-09-30T01:15:28;15.30;99.90
9776;DHT22;4927;52.472;13.108;2023-09-30T01:16:28;15.30;99.90
9776;DHT22;4927;52.472;13.108;2023-09-30T01:17:30;15.30;99.90
9776;DHT22;4927;52.472;13.108;2023-09-30T01:18:32;15.30;99.90
9776;DHT22;4927;52.472;13.108;2023-09-30T01:19:34;15.30;99.90
9776;DHT22;4927;52.472;13.108;2023-09-30T01:20:36;15.30;99.90
9776;DHT22;4927;52.472;13.108;2023-09-30T01:21:38;15.20;99.90
9776;DHT22;4927;52.472;13.108;2023-09-30T01:22:39;15.20;99.90
9776;DHT22;4927;52.472;13.108;2023-09-30T01:23:41;15.20;99.90
9776;DHT22;4927;52.472;13.108;2023-09-30T01:24:43;15.20;99.90
9776;DHT22;4927;52.472;13.108;2023-09-30T01:25:45;15.10;99.90
9776;DHT22;4927;52.472;13.108;2023-09-30T01:26:47;15.10;99.90
9776;DHT22;4927;52.472;13.108;2023-09-30T01:27:49;15.10;99.90
9776;DHT22;4927;52.472;13.108;2023-09-30T01:28:51;15.10;99.90
9776;DHT22;4927;52.472;13.108;2023-09-30T01:29:53;15.00;99.90
9776;DHT22;4927;52.472;13.108;2023-09-30T01:30:55;15.00;99.90
9776;DHT22;4927;52.472;13.108;2023-09-30T01:31:56;15.00;99.90
9776;DHT22;4927;52.472;13.108;2023-09-30T01:32:58;15.00;99.90
9776;DHT22;4927;52.472;13.108;2023-09-30T01:34:01;15.00;99.90
9776;DHT22;4927;52.472;13.108;2023-09-30T01:35:04;15.00;99.90
9776;DHT22;4927;52.472;13.108;2023-09-30T01:36:07;14.90;99.90
9776;DHT22;4927;52.472;13.108;2023-09-30T01:37:09;14.90;99.90
9776;DHT22;4927;52.472;13.108;2023-09-30T01:38:10;14.90;99.90
9776;DHT22;4927;52.472;13.108;2023-09-30T01:39:12;14.90;99.90
9776;DHT22;4927;52.472;13.108;2023-09-30T01:40:14;14.80;99.90
9776;DHT22;4927;52.472;13.108;2023-09-30T01:41:16;14.80;99.90
9776;DHT22;4927;52.472;13.108;2023-09-30T01:42:19;14.80;99.90
9776;DHT22;4927;52.472;13.108;2023-09-30T01:43:20;14.70;99.90
9776;DHT22;4927;52.472;13.108;2023-09-30T01:44:22;14.70;99.90
9776;DHT22;4927;52.472;13.108;2023-09-30T01:45:24;14.70;99.90
9776;DHT22;4927;52.472;13.108;2023-09-30T01:46:26;14.70;99.90
9776;DHT22;4927;52.472;13.108;2023-09-30T01:47:28;14.60;99.90
9776;DHT22;4927;52.472;13.108;2023-09-30T01:48:29;14.60;99.90
9776;DHT22;4927;52.472;13.108;2023-09-30T01:49:31;14.50;99.90
9776;DHT22;4927;52.472;13.108;2023-09-30T01:50:33;14.50;99.90
9776;DHT22;4927;52.472;13.108;2023-09-30T01:51:35;14.40;99.90
9776;DHT22;4927;52.472;13.108;2023-09-30T01:52:37;14.40;99.90
9776;DHT22;4927;52.472;13.108;2023-09-30T01:53:39;14.40;99.90
9776;DHT22;4927;52.472;13.108;2023-09-30T01:54:41;14.40;99.90
9776;DHT22;4927;52.472;13.108;2023-09-30T01:55:43;14.40;99.90
9776;DHT22;4927;52.472;13.108;2023-09-30T01:56:45;14.30;99.90
9776;DHT22;4927;52.472;13.108;2023-09-30T01:57:47;14.30;99.90
9776;DHT22;4927;52.472;13.108;2023-09-30T01:58:48;14.30;99.90
9776;DHT22;4927;52.472;13.108;2023-09-30T01:59:50;14.30;99.90
9776;DHT22;4927;52.472;13.108;2023-09-30T02:00:52;14.20;99.90
9776;DHT22;4927;52.472;13.108;2023-09-30T02:01:53;14.20;99.90
9776;DHT22;4927;52.472;13.108;2023-09-30T02:02:55;14.20;99.90
9776;DHT22;4927;52.472;13.108;2023-09-30T02:03:57;14.20;99.90
9776;DHT22;4927;52.472;13.108;2023-09-30T02:04:59;14.20;99.90
9776;DHT22;4927;52.472;13.108;2023-09-30T02:06:00;14.20;99.90
9776;DHT22;4927;52.472;13.108;2023-09-30T02:07:03;14.10;99.90
9776;DHT22;4927;52.472;13.108;2023-09-30T02:08:05;14.10;99.90
9776;DHT22;4927;52.472;13.108;2023-09-30T02:09:07;14.10;99.90
9776;DHT22;4927;52.472;13.108;2023-09-30T02:10:09;14.10;99.90
9776;DHT22;4927;52.472;13.108;2023-09-30T02:11:11;14.10;99.90
9776;DHT22;4927;52.472;13.108;2023-09-30T02:12:12;14.10;99.90
9776;DHT22;4927;52.472;13.108;2023-09-30T02:13:14;14.10;99.90
9776;DHT22;4927;52.472;13.108;2023-09-30T02:14:16;14.10;99.90
9776;DHT22;4927;52.472;13.108;2023-09-30T02:15:24;14.10;99.90
9776;DHT22;4927;52.472;13.108;2023-09-30T02:16:26;14.10;99.90
9776;DHT22;4927;52.472;13.108;2023-09-30T02:17:28;14.10;99.90
9776;DHT22;4927;52.472;13.108;2023-09-30T02:18:30;14.10;99.90
9776;DHT22;4927;52.472;13.108;2023-09-30T02:19:31;14.00;99.90
9776;DHT22;4927;52.472;13.108;2023-09-30T02:20:33;14.00;99.90
9776;DHT22;4927;52.472;13.108;2023-09-30T02:21:35;14.00;99.90
9776;DHT22;4927;52.472;13.108;2023-09-30T02:22:37;14.00;99.90
9776;DHT22;4927;52.472;13.108;2023-09-30T02:23:38;14.00;99.90
9776;DHT22;4927;52.472;13.108;2023-09-30T02:24:40;13.90;99.90
9776;DHT22;4927;52.472;13.108;2023-09-30T02:25:42;13.90;99.90
9776;DHT22;4927;52.472;13.108;2023-09-30T02:26:44;13.90;99.90
9776;DHT22;4927;52.472;13.108;2023-09-30T02:27:47;13.90;99.90
9776;DHT22;4927;52.472;13.108;2023-09-30T02:28:49;13.90;99.90
9776;DHT22;4927;52.472;13.108;2023-09-30T02:29:51;13.90;99.90
9776;DHT22;4927;52.472;13.108;2023-09-30T02:30:53;13.80;99.90
9776;DHT22;4927;52.472;13.108;2023-09-30T02:31:55;13.80;99.90
9776;DHT22;4927;52.472;13.108;2023-09-30T02:32:57;13.80;99.90
9776;DHT22;4927;52.472;13.108;2023-09-30T02:33:59;13.80;99.90
9776;DHT22;4927;52.472;13.108;2023-09-30T02:35:01;13.80;99.90
9776;DHT22;4927;52.472;13.108;2023-09-30T02:36:03;13.70;99.90
9776;DHT22;4927;52.472;13.108;2023-09-30T02:37:05;13.70;99.90
9776;DHT22;4927;52.472;13.108;2023-09-30T02:38:06;13.70;99.90
9776;DHT22;4927;52.472;13.108;2023-09-30T02:39:08;13.70;99.90
9776;DHT22;4927;52.472;13.108;2023-09-30T02:40:10;13.70;99.90
9776;DHT22;4927;52.472;13.108;2023-09-30T02:41:12;13.70;99.90
9776;DHT22;4927;52.472;13.108;2023-09-30T02:42:14;13.70;99.90
9776;DHT22;4927;52.472;13.108;2023-09-30T02:43:15;13.60;99.90
9776;DHT22;4927;52.472;13.108;2023-09-30T02:44:18;13.70;99.90
9776;DHT22;4927;52.472;13.108;2023-09-30T02:45:19;13.70;99.90
9776;DHT22;4927;52.472;13.108;2023-09-30T02:46:22;13.60;99.90
9776;DHT22;4927;52.472;13.108;2023-09-30T02:47:23;13.60;99.90
9776;DHT22;4927;52.472;13.108;2023-09-30T02:48:25;13.60;99.90
9776;DHT22;4927;52.472;13.108;2023-09-30T02:49:27;13.60;99.90
9776;DHT22;4927;52.472;13.108;2023-09-30T02:50:29;13.70;99.90
9776;DHT22;4927;52.472;13.108;2023-09-30T02:51:31;13.60;99.90
9776;DHT22;4927;52.472;13.108;2023-09-30T02:52:34;13.60;99.90
9776;DHT22;4927;52.472;13.108;2023-09-30T02:53:35;13.60;99.90
9776;DHT22;4927;52.472;13.108;2023-09-30T02:54:37;13.60;99.90
9776;DHT22;4927;52.472;13.108;2023-09-30T02:55:39;13.60;99.90
9776;DHT22;4927;52.472;13.108;2023-09-30T02:56:41;13.60;99.90
9776;DHT22;4927;52.472;13.108;2023-09-30T02:57:42;13.60;99.90
9776;DHT22;4927;52.472;13.108;2023-09-30T02:58:45;13.60;99.90
9776;DHT22;4927;52.472;13.108;2023-09-30T02:59:47;13.60;99.90
9776;DHT22;4927;52.472;13.108;2023-09-30T03:00:48;13.60;99.90
9776;DHT22;4927;52.472;13.108;2023-09-30T03:01:50;13.60;99.90
9776;DHT22;4927;52.472;13.108;2023-09-30T03:02:53;13.60;99.90
9776;DHT22;4927;52.472;13.108;2023-09-30T03:03:54;13.60;99.90
9776;DHT22;4927;52.472;13.108;2023-09-30T03:04:56;13.60;99.90
9776;DHT22;4927;52.472;13.108;2023-09-30T03:05:58;13.50;99.90
9776;DHT22;4927;52.472;13.108;2023-09-30T03:07:00;13.50;99.90
9776;DHT22;4927;52.472;13.108;2023-09-30T03:08:04;13.50;99.90
9776;DHT22;4927;52.472;13.108;2023-09-30T03:09:05;13.50;99.90
9776;DHT22;4927;52.472;13.108;2023-09-30T03:10:07;13.50;99.90
9776;DHT22;4927;52.472;13.108;2023-09-30T03:11:09;13.50;99.90
9776;DHT22;4927;52.472;13.108;2023-09-30T03:12:11;13.50;99.90
9776;DHT22;4927;52.472;13.108;2023-09-30T03:13:12;13.50;99.90
9776;DHT22;4927;52.472;13.108;2023-09-30T03:14:14;13.50;99.90
9776;DHT22;4927;52.472;13.108;2023-09-30T03:15:23;13.50;99.90
9776;DHT22;4927;52.472;13.108;2023-09-30T03:16:25;13.50;99.90
9776;DHT22;4927;52.472;13.108;2023-09-30T03:17:27;13.50;99.90
9776;DHT22;4927;52.472;13.108;2023-09-30T03:18:29;13.50;99.90
9776;DHT22;4927;52.472;13.108;2023-09-30T03:19:31;13.50;99.90
9776;DHT22;4927;52.472;13.108;2023-09-30T03:20:32;13.40;99.90
9776;DHT22;4927;52.472;13.108;2023-09-30T03:21:34;13.40;99.90
9776;DHT22;4927;52.472;13.108;2023-09-30T03:22:36;13.40;99.90
9776;DHT22;4927;52.472;13.108;2023-09-30T03:23:38;13.40;99.90
9776;DHT22;4927;52.472;13.108;2023-09-30T03:24:40;13.40;99.90
9776;DHT22;4927;52.472;13.108;2023-09-30T03:25:42;13.40;99.90
9776;DHT22;4927;52.472;13.108;2023-09-30T03:26:43;13.40;99.90
9776;DHT22;4927;52.472;13.108;2023-09-30T03:27:46;13.40;99.90
9776;DHT22;4927;52.472;13.108;2023-09-30T03:28:48;13.40;99.90
9776;DHT22;4927;52.472;13.108;2023-09-30T03:29:50;13.40;99.90
9776;DHT22;4927;52.472;13.108;2023-09-30T03:30:52;13.30;99.90
9776;DHT22;4927;52.472;13.108;2023-09-30T03:31:53;13.30;99.90
9776;DHT22;4927;52.472;13.108;2023-09-30T03:32:55;13.30;99.90
9776;DHT22;4927;52.472;13.108;2023-09-30T03:33:57;13.30;99.90
9776;DHT22;4927;52.472;13.108;2023-09-30T03:34:59;13.30;99.90
9776;DHT22;4927;52.472;13.108;2023-09-30T03:36:01;13.30;99.90
9776;DHT22;4927;52.472;13.108;2023-09-30T03:37:02;13.30;99.90
9776;DHT22;4927;52.472;13.108;2023-09-30T03:38:04;13.30;99.90
9776;DHT22;4927;52.472;13.108;2023-09-30T03:39:07;13.30;99.90
9776;DHT22;4927;52.472;13.108;2023-09-30T03:40:09;13.30;99.90
9776;DHT22;4927;52.472;13.108;2023-09-30T03:41:13;13.30;99.90
9776;DHT22;4927;52.472;13.108;2023-09-30T03:42:15;13.20;99.90
9776;DHT22;4927;52.472;13.108;2023-09-30T03:43:17;13.20;99.90
9776;DHT22;4927;52.472;13.108;2023-09-30T03:44:19;13.20;99.90
9776;DHT22;4927;52.472;13.108;2023-09-30T03:45:20;13.20;99.90
9776;DHT22;4927;52.472;13.108;2023-09-30T03:46:23;13.20;99.90
9776;DHT22;4927;52.472;13.108;2023-09-30T03:47:24;13.20;99.90
9776;DHT22;4927;52.472;13.108;2023-09-30T03:48:26;13.20;99.90
9776;DHT22;4927;52.472;13.108;2023-09-30T03:49:28;13.20;99.90
9776;DHT22;4927;52.472;13.108;2023-09-30T03:50:29;13.20;99.90
9776;DHT22;4927;52.472;13.108;2023-09-30T03:51:31;13.20;99.90
9776;DHT22;4927;52.472;13.108;2023-09-30T03:52:34;13.10;99.90
9776;DHT22;4927;52.472;13.108;2023-09-30T03:53:35;13.10;99.90
9776;DHT22;4927;52.472;13.108;2023-09-30T03:54:37;13.10;99.90
9776;DHT22;4927;52.472;13.108;2023-09-30T03:55:38;13.10;99.90
9776;DHT22;4927;52.472;13.108;2023-09-30T03:56:40;13.10;99.90
9776;DHT22;4927;52.472;13.108;2023-09-30T03:57:42;13.10;99.90
9776;DHT22;4927;52.472;13.108;2023-09-30T03:58:44;13.10;99.90
9776;DHT22;4927;52.472;13.108;2023-09-30T03:59:46;13.10;99.90
9776;DHT22;4927;52.472;13.108;2023-09-30T04:00:47;13.10;99.90
9776;DHT22;4927;52.472;13.108;2023-09-30T04:01:49;13.10;99.90
9776;DHT22;4927;52.472;13.108;2023-09-30T04:02:51;13.10;99.90
9776;DHT22;4927;52.472;13.108;2023-09-30T04:03:55;13.00;99.90
9776;DHT22;4927;52.472;13.108;2023-09-30T04:04:58;13.00;99.90
9776;DHT22;4927;52.472;13.108;2023-09-30T04:06:00;13.00;99.90
9776;DHT22;4927;52.472;13.108;2023-09-30T04:07:02;13.10;99.90
9776;DHT22;4927;52.472;13.108;2023-09-30T04:08:04;13.00;99.90
9776;DHT22;4927;52.472;13.108;2023-09-30T04:09:06;13.00;99.90
9776;DHT22;4927;52.472;13.108;2023-09-30T04:10:10;13.00;99.90
9776;DHT22;4927;52.472;13.108;2023-09-30T04:11:12;13.00;99.90
9776;DHT22;4927;52.472;13.108;2023-09-30T04:12:15;13.00;99.90
9776;DHT22;4927;52.472;13.108;2023-09-30T04:13:17;13.00;99.90
9776;DHT22;4927;52.472;13.108;2023-09-30T04:14:18;13.00;99.90
9776;DHT22;4927;52.472;13.108;2023-09-30T04:15:20;13.00;99.90
9776;DHT22;4927;52.472;13.108;2023-09-30T04:16:23;13.00;99.90
9776;DHT22;4927;52.472;13.108;2023-09-30T04:17:25;12.90;99.90
9776;DHT22;4927;52.472;13.108;2023-09-30T04:18:26;12.90;99.90
9776;DHT22;4927;52.472;13.108;2023-09-30T04:19:28;12.90;99.90
9776;DHT22;4927;52.472;13.108;2023-09-30T04:20:30;12.90;99.90
9776;DHT22;4927;52.472;13.108;2023-09-30T04:21:32;12.90;99.90
9776;DHT22;4927;52.472;13.108;2023-09-30T04:22:37;12.90;99.90
9776;DHT22;4927;52.472;13.108;2023-09-30T04:23:38;12.90;99.90
9776;DHT22;4927;52.472;13.108;2023-09-30T04:24:40;12.90;99.90
9776;DHT22;4927;52.472;13.108;2023-09-30T04:25:41;12.90;99.90
9776;DHT22;4927;52.472;13.108;2023-09-30T04:26:43;12.70;99.90
9776;DHT22;4927;52.472;13.108;2023-09-30T04:27:46;12.90;99.90
9776;DHT22;4927;52.472;13.108;2023-09-30T04:28:47;12.90;99.90
9776;DHT22;4927;52.472;13.108;2023-09-30T04:29:49;12.80;99.90
9776;DHT22;4927;52.472;13.108;2023-09-30T04:30:50;12.80;99.90
9776;DHT22;4927;52.472;13.108;2023-09-30T04:31:52;12.80;99.90
9776;DHT22;4927;52.472;13.108;2023-09-30T04:32:55;12.80;99.90
9776;DHT22;4927;52.472;13.108;2023-09-30T04:33:56;12.80;99.90
9776;DHT22;4927;52.472;13.108;2023-09-30T04:34:59;12.80;99.90
9776;DHT22;4927;52.472;13.108;2023-09-30T04:36:01;12.80;99.90
9776;DHT22;4927;52.472;13.108;2023-09-30T04:37:03;12.80;99.90
9776;DHT22;4927;52.472;13.108;2023-09-30T04:38:04;12.80;99.90
9776;DHT22;4927;52.472;13.108;2023-09-30T04:39:06;12.80;99.90
9776;DHT22;4927;52.472;13.108;2023-09-30T04:40:10;12.80;99.90
9776;DHT22;4927;52.472;13.108;2023-09-30T04:41:14;12.80;99.90
9776;DHT22;4927;52.472;13.108;2023-09-30T04:42:15;12.70;99.90
9776;DHT22;4927;52.472;13.108;2023-09-30T04:43:17;12.70;99.90
9776;DHT22;4927;52.472;13.108;2023-09-30T04:44:19;12.70;99.90
9776;DHT22;4927;52.472;13.108;2023-09-30T04:45:20;12.70;99.90
9776;DHT22;4927;52.472;13.108;2023-09-30T04:46:22;12.60;99.90
9776;DHT22;4927;52.472;13.108;2023-09-30T04:47:24;12.60;99.90
9776;DHT22;4927;52.472;13.108;2023-09-30T04:48:26;12.60;99.90
9776;DHT22;4927;52.472;13.108;2023-09-30T04:49:27;12.60;99.90
9776;DHT22;4927;52.472;13.108;2023-09-30T04:50:29;12.60;99.90
9776;DHT22;4927;52.472;13.108;2023-09-30T04:51:31;12.60;99.90
9776;DHT22;4927;52.472;13.108;2023-09-30T04:52:33;12.60;99.90
9776;DHT22;4927;52.472;13.108;2023-09-30T04:53:35;12.50;99.90
9776;DHT22;4927;52.472;13.108;2023-09-30T04:54:36;12.50;99.90
9776;DHT22;4927;52.472;13.108;2023-09-30T04:55:38;12.50;99.90
9776;DHT22;4927;52.472;13.108;2023-09-30T04:56:40;12.50;99.90
9776;DHT22;4927;52.472;13.108;2023-09-30T04:57:42;12.50;99.90
9776;DHT22;4927;52.472;13.108;2023-09-30T04:58:43;12.40;99.90
9776;DHT22;4927;52.472;13.108;2023-09-30T04:59:45;12.40;99.90
9776;DHT22;4927;52.472;13.108;2023-09-30T05:00:47;12.40;99.90
9776;DHT22;4927;52.472;13.108;2023-09-30T05:01:49;12.40;99.90
9776;DHT22;4927;52.472;13.108;2023-09-30T05:02:51;12.40;99.90
9776;DHT22;4927;52.472;13.108;2023-09-30T05:03:53;12.30;99.90
9776;DHT22;4927;52.472;13.108;2023-09-30T05:04:54;12.30;99.90
9776;DHT22;4927;52.472;13.108;2023-09-30T05:05:56;12.30;99.90
9776;DHT22;4927;52.472;13.108;2023-09-30T05:06:58;12.30;99.90
9776;DHT22;4927;52.472;13.108;2023-09-30T05:08:01;12.30;99.90
9776;DHT22;4927;52.472;13.108;2023-09-30T05:09:02;12.20;99.90
9776;DHT22;4927;52.472;13.108;2023-09-30T05:10:06;12.30;99.90
9776;DHT22;4927;52.472;13.108;2023-09-30T05:11:08;12.20;99.90
9776;DHT22;4927;52.472;13.108;2023-09-30T05:12:10;12.20;99.90
9776;DHT22;4927;52.472;13.108;2023-09-30T05:13:12;12.20;99.90
9776;DHT22;4927;52.472;13.108;2023-09-30T05:14:13;12.20;99.90
9776;DHT22;4927;52.472;13.108;2023-09-30T05:15:15;12.20;99.90
9776;DHT22;4927;52.472;13.108;2023-09-30T05:16:17;12.20;99.90
9776;DHT22;4927;52.472;13.108;2023-09-30T05:17:18;12.10;99.90
9776;DHT22;4927;52.472;13.108;2023-09-30T05:18:21;12.10;99.90
9776;DHT22;4927;52.472;13.108;2023-09-30T05:19:22;12.10;99.90
9776;DHT22;4927;52.472;13.108;2023-09-30T05:20:24;12.10;99.90
9776;DHT22;4927;52.472;13.108;2023-09-30T05:21:26;12.10;99.90
9776;DHT22;4927;52.472;13.108;2023-09-30T05:22:28;12.00;99.90
9776;DHT22;4927;52.472;13.108;2023-09-30T05:23:30;12.10;99.90
9776;DHT22;4927;52.472;13.108;2023-09-30T05:24:32;12.00;99.90
9776;DHT22;4927;52.472;13.108;2023-09-30T05:25:33;12.00;99.90
9776;DHT22;4927;52.472;13.108;2023-09-30T05:26:36;12.10;99.90
9776;DHT22;4927;52.472;13.108;2023-09-30T05:27:38;12.00;99.90
9776;DHT22;4927;52.472;13.108;2023-09-30T05:28:39;12.00;99.90
9776;DHT22;4927;52.472;13.108;2023-09-30T05:29:41;12.00;99.90
9776;DHT22;4927;52.472;13.108;2023-09-30T05:30:43;12.00;99.90
9776;DHT22;4927;52.472;13.108;2023-09-30T05:31:44;12.00;99.90
9776;DHT22;4927;52.472;13.108;2023-09-30T05:32:48;12.00;99.90
9776;DHT22;4927;52.472;13.108;2023-09-30T05:33:49;12.00;99.90
9776;DHT22;4927;52.472;13.108;2023-09-30T05:34:52;12.00;99.90
9776;DHT22;4927;52.472;13.108;2023-09-30T05:35:54;12.00;99.90
9776;DHT22;4927;52.472;13.108;2023-09-30T05:36:55;12.00;99.90
9776;DHT22;4927;52.472;13.108;2023-09-30T05:37:57;12.10;99.90
9776;DHT22;4927;52.472;13.108;2023-09-30T05:39:00;12.10;99.90
9776;DHT22;4927;52.472;13.108;2023-09-30T05:40:02;12.10;99.90
9776;DHT22;4927;52.472;13.108;2023-09-30T05:41:05;12.10;99.90
9776;DHT22;4927;52.472;13.108;2023-09-30T05:42:06;12.10;99.90
9776;DHT22;4927;52.472;13.108;2023-09-30T05:43:08;12.10;99.90
9776;DHT22;4927;52.472;13.108;2023-09-30T05:44:10;12.10;99.90
9776;DHT22;4927;52.472;13.108;2023-09-30T05:45:13;12.20;99.90
9776;DHT22;4927;52.472;13.108;2023-09-30T05:46:15;12.20;99.90
9776;DHT22;4927;52.472;13.108;2023-09-30T05:47:17;12.20;99.90
9776;DHT22;4927;52.472;13.108;2023-09-30T05:48:19;12.20;99.90
9776;DHT22;4927;52.472;13.108;2023-09-30T05:49:20;12.20;99.90
9776;DHT22;4927;52.472;13.108;2023-09-30T05:50:23;12.30;99.90
9776;DHT22;4927;52.472;13.108;2023-09-30T05:51:24;12.30;99.90
9776;DHT22;4927;52.472;13.108;2023-09-30T05:52:26;12.30;99.90
9776;DHT22;4927;52.472;13.108;2023-09-30T05:53:28;12.40;99.90
9776;DHT22;4927;52.472;13.108;2023-09-30T05:54:30;12.40;99.90
9776;DHT22;4927;52.472;13.108;2023-09-30T05:55:31;12.40;99.90
9776;DHT22;4927;52.472;13.108;2023-09-30T05:56:34;12.50;99.90
9776;DHT22;4927;52.472;13.108;2023-09-30T05:57:36;12.40;99.90
9776;DHT22;4927;52.472;13.108;2023-09-30T05:58:38;12.50;99.90
9776;DHT22;4927;52.472;13.108;2023-09-30T05:59:41;12.50;99.90
9776;DHT22;4927;52.472;13.108;2023-09-30T06:00:43;12.50;99.90
9776;DHT22;4927;52.472;13.108;2023-09-30T06:01:44;12.60;99.90
9776;DHT22;4927;52.472;13.108;2023-09-30T06:02:48;12.70;99.90
9776;DHT22;4927;52.472;13.108;2023-09-30T06:03:50;12.60;99.90
9776;DHT22;4927;52.472;13.108;2023-09-30T06:04:53;12.70;99.90
9776;DHT22;4927;52.472;13.108;2023-09-30T06:05:56;12.70;99.90
9776;DHT22;4927;52.472;13.108;2023-09-30T06:06:57;12.70;99.90
9776;DHT22;4927;52.472;13.108;2023-09-30T06:08:02;12.80;99.90
9776;DHT22;4927;52.472;13.108;2023-09-30T06:09:02;12.80;99.90
9776;DHT22;4927;52.472;13.108;2023-09-30T06:10:06;12.80;99.90
9776;DHT22;4927;52.472;13.108;2023-09-30T06:11:15;12.90;99.90
9776;DHT22;4927;52.472;13.108;2023-09-30T06:12:11;12.90;99.90
9776;DHT22;4927;52.472;13.108;2023-09-30T06:13:13;12.90;99.90
9776;DHT22;4927;52.472;13.108;2023-09-30T06:14:14;12.90;99.90
9776;DHT22;4927;52.472;13.108;2023-09-30T06:15:16;12.90;99.90
9776;DHT22;4927;52.472;13.108;2023-09-30T06:16:19;13.00;99.90
9776;DHT22;4927;52.472;13.108;2023-09-30T06:17:21;13.00;99.90
9776;DHT22;4927;52.472;13.108;2023-09-30T06:18:23;13.00;99.90
9776;DHT22;4927;52.472;13.108;2023-09-30T06:19:24;13.00;99.90
9776;DHT22;4927;52.472;13.108;2023-09-30T06:20:26;13.00;99.90
9776;DHT22;4927;52.472;13.108;2023-09-30T06:21:28;13.00;99.90
9776;DHT22;4927;52.472;13.108;2023-09-30T06:22:30;13.00;99.90
9776;DHT22;4927;52.472;13.108;2023-09-30T06:23:32;13.10;99.90
9776;DHT22;4927;52.472;13.108;2023-09-30T06:24:33;13.10;99.90
9776;DHT22;4927;52.472;13.108;2023-09-30T06:25:35;13.10;99.90
9776;DHT22;4927;52.472;13.108;2023-09-30T06:26:37;13.10;99.90
9776;DHT22;4927;52.472;13.108;2023-09-30T06:27:39;13.10;99.90
9776;DHT22;4927;52.472;13.108;2023-09-30T06:28:42;13.10;99.90
9776;DHT22;4927;52.472;13.108;2023-09-30T06:29:43;13.10;99.90
9776;DHT22;4927;52.472;13.108;2023-09-30T06:30:45;13.10;99.90
9776;DHT22;4927;52.472;13.108;2023-09-30T06:31:47;13.10;99.90
9776;DHT22;4927;52.472;13.108;2023-09-30T06:32:49;13.10;99.90
9776;DHT22;4927;52.472;13.108;2023-09-30T06:33:51;13.10;99.90
9776;DHT22;4927;52.472;13.108;2023-09-30T06:34:53;13.10;99.90
9776;DHT22;4927;52.472;13.108;2023-09-30T06:35:55;13.10;99.90
9776;DHT22;4927;52.472;13.108;2023-09-30T06:36:57;13.10;99.90
9776;DHT22;4927;52.472;13.108;2023-09-30T06:37:59;13.10;99.90